createdAt,value
2018-07-31T00:00:09.126Z,59.05
2018-07-31T00:01:09.110Z,59.15
2018-07-31T00:02:09.114Z,59.25
2018-07-31T00:03:09.116Z,59.63
2018-07-31T00:04:09.120Z,59.73
2018-07-31T00:05:09.125Z,59.83
2018-07-31T00:06:09.132Z,59.53
2018-07-31T00:07:09.132Z,60.31
2018-07-31T00:08:09.138Z,60.50
2018-07-31T00:09:09.138Z,60.02
2018-07-31T00:10:09.145Z,60.02
2018-07-31T00:11:09.148Z,59.99
2018-07-31T00:12:09.152Z,59.99
2018-07-31T00:13:09.154Z,60.28
2018-07-31T00:14:09.161Z,60.21
2018-07-31T00:15:09.163Z,60.41
2018-07-31T00:16:09.167Z,60.76
2018-07-31T00:17:09.190Z,60.79
2018-07-31T00:18:09.174Z,60.50
2018-07-31T00:19:09.173Z,60.38
2018-07-31T00:20:09.188Z,60.67
2018-07-31T00:21:09.186Z,60.76
2018-07-31T00:22:09.189Z,60.38
2018-07-31T00:23:09.190Z,60.28
2018-07-31T00:24:09.210Z,60.86
2018-07-31T00:25:09.199Z,61.05
2018-07-31T00:26:09.204Z,60.86
2018-07-31T00:27:09.207Z,61.05
2018-07-31T00:28:09.217Z,61.25
2018-07-31T00:29:09.216Z,61.05
2018-07-31T00:30:09.219Z,61.15
2018-07-31T00:31:09.223Z,61.25
2018-07-31T00:32:09.225Z,61.15
2018-07-31T00:33:09.230Z,61.92
2018-07-31T00:34:09.250Z,62.12
2018-07-31T00:35:09.236Z,61.92
2018-07-31T00:36:09.240Z,61.54
2018-07-31T00:37:09.246Z,61.54
2018-07-31T00:38:09.256Z,61.73
2018-07-31T00:39:09.259Z,62.12
2018-07-31T00:40:09.257Z,62.21
2018-07-31T00:41:09.262Z,61.92
2018-07-31T00:42:09.258Z,62.31
2018-07-31T00:43:09.264Z,62.47
2018-07-31T00:44:09.274Z,62.89
2018-07-31T00:45:09.276Z,63.05
2018-07-31T00:46:09.278Z,62.66
2018-07-31T00:47:09.279Z,62.57
2018-07-31T00:48:09.284Z,62.95
2018-07-31T00:49:09.289Z,62.66
2018-07-31T00:50:09.290Z,62.95
2018-07-31T00:51:09.300Z,63.15
2018-07-31T00:52:09.302Z,63.43
2018-07-31T00:53:09.305Z,63.15
2018-07-31T00:54:09.311Z,63.82
2018-07-31T00:55:09.320Z,63.82
2018-07-31T00:56:09.313Z,63.43
2018-07-31T00:57:09.319Z,63.73
2018-07-31T00:58:09.320Z,64.31
2018-07-31T00:59:09.332Z,63.92
2018-07-31T01:00:09.327Z,64.50
2018-07-31T01:01:09.331Z,64.50
2018-07-31T01:02:09.334Z,64.50
2018-07-31T01:03:09.336Z,64.11
2018-07-31T01:04:09.340Z,64.86
2018-07-31T01:05:09.343Z,64.31
2018-07-31T01:06:09.348Z,64.40
2018-07-31T01:07:09.348Z,64.59
2018-07-31T01:08:09.353Z,64.79
2018-07-31T01:09:09.363Z,64.50
2018-07-31T01:10:09.362Z,64.56
2018-07-31T01:11:09.365Z,64.56
2018-07-31T01:12:09.363Z,64.69
2018-07-31T01:13:09.369Z,64.95
2018-07-31T01:14:09.374Z,65.05
2018-07-31T01:15:09.379Z,65.05
2018-07-31T01:16:09.386Z,64.76
2018-07-31T01:17:09.386Z,65.14
2018-07-31T01:18:09.390Z,64.86
2018-07-31T01:19:09.392Z,64.95
2018-07-31T01:20:09.396Z,65.05
2018-07-31T01:21:09.399Z,65.05
2018-07-31T01:22:09.404Z,65.53
2018-07-31T01:23:09.406Z,64.95
2018-07-31T01:24:09.415Z,65.24
2018-07-31T01:25:09.416Z,65.24
2018-07-31T01:26:09.420Z,65.72
2018-07-31T01:27:09.420Z,65.14
2018-07-31T01:28:09.424Z,65.24
2018-07-31T01:29:09.424Z,65.43
2018-07-31T01:30:09.430Z,65.24
2018-07-31T01:31:09.432Z,65.34
2018-07-31T01:32:09.437Z,65.43
2018-07-31T01:33:09.439Z,65.72
2018-07-31T01:34:09.445Z,65.63
2018-07-31T01:35:09.446Z,65.43
2018-07-31T01:36:09.453Z,65.72
2018-07-31T01:37:09.452Z,65.63
2018-07-31T01:38:09.457Z,65.82
2018-07-31T01:39:09.458Z,66.59
2018-07-31T01:40:09.462Z,66.30
2018-07-31T01:41:09.465Z,66.20
2018-07-31T01:42:09.470Z,65.82
2018-07-31T01:43:09.473Z,66.49
2018-07-31T01:44:09.476Z,66.20
2018-07-31T01:45:09.479Z,66.11
2018-07-31T01:46:09.483Z,66.59
2018-07-31T01:47:09.492Z,66.49
2018-07-31T01:48:09.490Z,66.59
2018-07-31T01:49:09.492Z,66.20
2018-07-31T01:50:09.507Z,66.49
2018-07-31T01:51:09.500Z,66.01
2018-07-31T01:52:09.498Z,66.69
2018-07-31T01:53:09.507Z,66.97
2018-07-31T01:54:09.518Z,67.07
2018-07-31T01:55:09.511Z,66.69
2018-07-31T01:56:09.516Z,66.30
2018-07-31T01:57:09.525Z,66.78
2018-07-31T01:58:09.518Z,66.49
2018-07-31T01:59:09.525Z,66.69
2018-07-31T02:00:09.531Z,66.49
2018-07-31T02:01:09.538Z,67.07
2018-07-31T02:02:09.588Z,67.17
2018-07-31T02:03:09.537Z,67.27
2018-07-31T02:04:09.542Z,66.59
2018-07-31T02:05:09.543Z,66.88
2018-07-31T02:06:09.554Z,67.27
2018-07-31T02:07:09.553Z,66.97
2018-07-31T02:08:09.555Z,66.85
2018-07-31T02:09:09.562Z,68.29
2018-07-31T02:10:09.558Z,68.68
2018-07-31T02:11:09.563Z,69.74
2018-07-31T02:12:09.565Z,69.55
2018-07-31T02:13:09.568Z,69.23
2018-07-31T02:14:09.572Z,68.97
2018-07-31T02:15:09.569Z,69.26
2018-07-31T02:16:09.580Z,70.32
2018-07-31T02:17:09.579Z,70.48
2018-07-31T02:18:09.586Z,69.45
2018-07-31T02:19:09.582Z,70.28
2018-07-31T02:20:09.591Z,70.67
2018-07-31T02:21:09.594Z,70.28
2018-07-31T02:22:09.624Z,71.06
2018-07-31T02:23:09.606Z,70.28
2018-07-31T02:24:09.603Z,71.64
2018-07-31T02:25:09.608Z,71.15
2018-07-31T02:26:09.613Z,72.02
2018-07-31T02:27:09.625Z,72.89
2018-07-31T02:28:09.721Z,74.43
2018-07-31T02:29:09.628Z,74.10
2018-07-31T02:30:09.624Z,74.58
2018-07-31T02:31:09.626Z,75.16
2018-07-31T02:32:09.643Z,74.49
2018-07-31T02:33:09.632Z,74.68
2018-07-31T02:34:09.639Z,74.88
2018-07-31T02:35:09.638Z,75.45
2018-07-31T02:36:09.645Z,75.07
2018-07-31T02:37:09.656Z,74.40
2018-07-31T02:38:09.649Z,75.45
2018-07-31T02:39:09.658Z,74.58
2018-07-31T02:40:09.652Z,74.49
2018-07-31T02:41:09.655Z,75.16
2018-07-31T02:42:09.675Z,75.55
2018-07-31T02:43:09.667Z,75.93
2018-07-31T02:44:09.667Z,75.32
2018-07-31T02:45:09.697Z,75.32
2018-07-31T02:46:09.672Z,75.80
2018-07-31T02:47:09.707Z,75.90
2018-07-31T02:48:09.679Z,75.80
2018-07-31T02:49:09.686Z,76.09
2018-07-31T02:50:09.686Z,76.28
2018-07-31T02:51:09.686Z,76.48
2018-07-31T02:52:09.690Z,77.25
2018-07-31T02:53:09.696Z,77.06
2018-07-31T02:54:09.697Z,77.15
2018-07-31T02:55:09.702Z,77.34
2018-07-31T02:56:09.709Z,77.44
2018-07-31T02:57:09.706Z,77.15
2018-07-31T02:58:09.786Z,78.02
2018-07-31T02:59:09.715Z,77.34
2018-07-31T03:00:09.715Z,77.83
2018-07-31T03:01:09.721Z,77.53
2018-07-31T03:02:09.720Z,78.88
2018-07-31T03:03:09.722Z,78.94
2018-07-31T03:04:09.728Z,78.65
2018-07-31T03:05:09.755Z,79.03
2018-07-31T03:06:09.733Z,79.13
2018-07-31T03:07:09.736Z,79.61
2018-07-31T03:08:09.749Z,78.36
2018-07-31T03:09:09.740Z,77.21
2018-07-31T03:10:09.747Z,77.25
2018-07-31T03:11:09.746Z,78.69
2018-07-31T03:12:09.753Z,78.08
2018-07-31T03:13:09.751Z,77.92
2018-07-31T03:14:09.756Z,77.40
2018-07-31T03:15:09.764Z,78.40
2018-07-31T03:16:09.762Z,78.40
2018-07-31T03:17:09.763Z,78.31
2018-07-31T03:18:09.768Z,77.44
2018-07-31T03:19:09.769Z,78.17
2018-07-31T03:20:09.774Z,78.56
2018-07-31T03:21:09.775Z,77.11
2018-07-31T03:22:09.781Z,78.69
2018-07-31T03:23:09.784Z,78.59
2018-07-31T03:24:09.791Z,75.90
2018-07-31T03:25:09.787Z,76.38
2018-07-31T03:26:09.790Z,77.15
2018-07-31T03:27:09.791Z,76.28
2018-07-31T03:28:09.858Z,74.74
2018-07-31T03:29:09.799Z,76.28
2018-07-31T03:30:09.805Z,76.18
2018-07-31T03:31:09.811Z,76.48
2018-07-31T03:32:09.825Z,77.06
2018-07-31T03:33:09.806Z,75.90
2018-07-31T03:34:09.810Z,76.38
2018-07-31T03:35:09.812Z,77.34
2018-07-31T03:36:09.817Z,75.03
2018-07-31T03:37:09.829Z,77.06
2018-07-31T03:38:09.823Z,77.06
2018-07-31T03:39:09.824Z,76.57
2018-07-31T03:40:09.827Z,77.34
2018-07-31T03:41:09.830Z,77.25
2018-07-31T03:42:09.833Z,76.67
2018-07-31T03:43:09.835Z,77.92
2018-07-31T03:44:09.839Z,78.11
2018-07-31T03:45:09.857Z,78.31
2018-07-31T03:46:09.846Z,77.92
2018-07-31T03:47:09.844Z,77.69
2018-07-31T03:48:09.851Z,77.53
2018-07-31T03:49:09.856Z,78.21
2018-07-31T03:50:09.900Z,78.79
2018-07-31T03:51:09.857Z,79.17
2018-07-31T03:52:09.868Z,76.76
2018-07-31T03:53:09.861Z,76.38
2018-07-31T03:54:09.865Z,75.90
2018-07-31T03:55:09.868Z,76.67
2018-07-31T03:56:09.873Z,76.48
2018-07-31T03:57:09.880Z,75.80
2018-07-31T03:58:09.876Z,76.48
2018-07-31T03:59:09.881Z,75.32
2018-07-31T04:00:09.912Z,75.36
2018-07-31T04:01:09.889Z,75.36
2018-07-31T04:02:09.889Z,76.42
2018-07-31T04:03:09.892Z,76.48
2018-07-31T04:04:09.891Z,77.25
2018-07-31T04:05:09.896Z,75.26
2018-07-31T04:06:09.901Z,75.93
2018-07-31T04:07:09.906Z,76.03
2018-07-31T04:08:09.906Z,75.84
2018-07-31T04:09:09.913Z,76.32
2018-07-31T04:10:09.915Z,75.26
2018-07-31T04:11:09.913Z,73.72
2018-07-31T04:12:09.919Z,74.78
2018-07-31T04:13:09.923Z,74.01
2018-07-31T04:14:09.926Z,73.43
2018-07-31T04:15:09.929Z,73.47
2018-07-31T04:16:09.937Z,73.47
2018-07-31T04:17:09.996Z,73.57
2018-07-31T04:18:09.939Z,72.79
2018-07-31T04:19:09.939Z,72.89
2018-07-31T04:20:09.939Z,72.99
2018-07-31T04:21:09.946Z,72.79
2018-07-31T04:22:09.948Z,72.21
2018-07-31T04:23:09.954Z,71.92
2018-07-31T04:24:09.954Z,72.31
2018-07-31T04:25:09.956Z,72.21
2018-07-31T04:26:09.961Z,72.02
2018-07-31T04:27:09.980Z,72.25
2018-07-31T04:28:09.967Z,71.58
2018-07-31T04:29:09.969Z,71.58
2018-07-31T04:30:10.047Z,70.80
2018-07-31T04:31:09.977Z,71.58
2018-07-31T04:32:09.985Z,70.51
2018-07-31T04:33:09.983Z,70.70
2018-07-31T04:34:09.986Z,70.51
2018-07-31T04:35:09.984Z,70.64
2018-07-31T04:36:10.008Z,69.78
2018-07-31T04:37:09.994Z,69.00
2018-07-31T04:38:09.996Z,68.49
2018-07-31T04:39:10.000Z,66.56
2018-07-31T04:40:10.004Z,65.27
2018-07-31T04:41:10.025Z,64.43
2018-07-31T04:42:10.055Z,63.66
2018-07-31T04:43:10.014Z,62.27
2018-07-31T04:44:10.017Z,61.95
2018-07-31T04:45:10.021Z,61.76
2018-07-31T04:46:10.025Z,62.04
2018-07-31T04:47:10.032Z,61.30
2018-07-31T04:48:10.034Z,61.01
2018-07-31T04:49:10.038Z,61.56
2018-07-31T04:50:10.047Z,60.62
2018-07-31T04:51:10.045Z,61.01
2018-07-31T04:52:10.047Z,60.24
2018-07-31T04:53:10.049Z,61.04
2018-07-31T04:54:10.054Z,60.07
2018-07-31T04:55:10.057Z,60.17
2018-07-31T04:56:10.065Z,60.00
2018-07-31T04:57:10.086Z,59.00
2018-07-31T04:58:10.065Z,59.39
2018-07-31T04:59:10.076Z,60.07
2018-07-31T05:00:10.075Z,58.91
2018-07-31T05:01:10.081Z,59.23
2018-07-31T05:02:10.084Z,58.29
2018-07-31T05:03:10.087Z,58.09
2018-07-31T05:04:10.089Z,58.16
2018-07-31T05:05:10.096Z,57.90
2018-07-31T05:06:10.100Z,57.22
2018-07-31T05:07:10.127Z,57.06
2018-07-31T05:08:10.110Z,56.86
2018-07-31T05:09:10.111Z,56.67
2018-07-31T05:10:10.117Z,55.99
2018-07-31T05:11:10.131Z,57.25
2018-07-31T05:12:10.128Z,56.01
2018-07-31T05:13:10.134Z,56.09
2018-07-31T05:14:10.139Z,55.82
2018-07-31T05:15:10.140Z,55.79
2018-07-31T05:16:10.144Z,56.67
2018-07-31T05:17:10.154Z,57.34
2018-07-31T05:18:10.175Z,56.54
2018-07-31T05:19:10.160Z,57.68
2018-07-31T05:20:10.164Z,57.42
2018-07-31T05:21:10.171Z,57.06
2018-07-31T05:22:10.196Z,56.60
2018-07-31T05:23:10.203Z,55.82
2018-07-31T05:24:10.177Z,56.18
2018-07-31T05:25:10.200Z,55.82
2018-07-31T05:26:10.191Z,56.04
2018-07-31T05:27:10.196Z,55.33
2018-07-31T05:28:10.203Z,55.69
2018-07-31T05:29:10.216Z,55.92
2018-07-31T05:30:10.215Z,54.32
2018-07-31T05:31:10.219Z,53.16
2018-07-31T05:32:10.222Z,53.08
2018-07-31T05:33:10.230Z,52.01
2018-07-31T05:34:10.235Z,51.84
2018-07-31T05:35:10.236Z,52.96
2018-07-31T05:36:10.242Z,53.16
2018-07-31T05:37:10.248Z,53.16
2018-07-31T05:38:10.252Z,53.08
2018-07-31T05:39:10.262Z,51.55
2018-07-31T05:40:10.266Z,52.21
2018-07-31T05:41:10.271Z,52.14
2018-07-31T05:42:10.278Z,51.75
2018-07-31T05:43:10.300Z,52.06
2018-07-31T05:44:10.287Z,50.95
2018-07-31T05:45:10.292Z,50.26
2018-07-31T05:46:10.305Z,49.71
2018-07-31T05:47:10.301Z,48.73
2018-07-31T05:48:10.309Z,48.68
2018-07-31T05:49:10.315Z,47.58
2018-07-31T05:50:10.320Z,47.75
2018-07-31T05:51:10.326Z,49.07
2018-07-31T05:52:10.332Z,49.49
2018-07-31T05:53:10.338Z,49.32
2018-07-31T05:54:10.344Z,47.66
2018-07-31T05:55:10.349Z,48.85
2018-07-31T05:56:10.355Z,47.41
2018-07-31T05:57:10.373Z,47.31
2018-07-31T05:58:10.366Z,47.19
2018-07-31T05:59:10.375Z,48.34
2018-07-31T06:00:10.384Z,48.05
2018-07-31T06:01:10.389Z,48.54
2018-07-31T06:02:10.395Z,48.85
2018-07-31T06:03:10.402Z,47.61
2018-07-31T06:04:10.408Z,47.24
2018-07-31T06:05:10.415Z,46.31
2018-07-31T06:06:10.425Z,45.58
2018-07-31T06:07:10.428Z,47.29
2018-07-31T06:08:10.440Z,48.19
2018-07-31T06:09:10.442Z,47.17
2018-07-31T06:10:10.450Z,45.55
2018-07-31T06:11:10.454Z,45.14
2018-07-31T06:12:10.463Z,45.31
2018-07-31T06:13:10.471Z,45.90
2018-07-31T06:14:10.476Z,46.09
2018-07-31T06:15:10.497Z,46.00
2018-07-31T06:16:10.512Z,45.36
2018-07-31T06:17:10.499Z,45.09
2018-07-31T06:18:10.508Z,46.29
2018-07-31T06:19:10.511Z,45.28
2018-07-31T06:20:10.522Z,44.38
2018-07-31T06:21:10.530Z,44.67
2018-07-31T06:22:10.537Z,44.89
2018-07-31T06:23:10.544Z,43.07
2018-07-31T06:24:10.550Z,42.17
2018-07-31T06:25:10.583Z,43.17
2018-07-31T06:26:10.567Z,42.48
2018-07-31T06:27:10.573Z,42.09
2018-07-31T06:28:10.583Z,42.55
2018-07-31T06:29:10.585Z,40.84
2018-07-31T06:30:10.619Z,41.62
2018-07-31T06:31:10.606Z,41.23
2018-07-31T06:32:10.614Z,40.68
2018-07-31T06:33:10.625Z,41.39
2018-07-31T06:34:10.636Z,39.59
2018-07-31T06:35:10.642Z,40.98
2018-07-31T06:36:10.651Z,40.58
2018-07-31T06:37:10.657Z,41.03
2018-07-31T06:38:10.666Z,41.56
2018-07-31T06:39:10.674Z,40.68
2018-07-31T06:40:10.683Z,41.50
2018-07-31T06:41:10.692Z,42.07
2018-07-31T06:42:10.704Z,41.60
2018-07-31T06:43:10.710Z,42.09
2018-07-31T06:44:10.720Z,42.31
2018-07-31T06:45:10.732Z,41.66
2018-07-31T06:46:10.739Z,40.80
2018-07-31T06:47:10.745Z,40.68
2018-07-31T06:48:10.753Z,40.68
2018-07-31T06:49:10.785Z,41.21
2018-07-31T06:50:10.776Z,42.64
2018-07-31T06:51:10.784Z,43.13
2018-07-31T06:52:10.795Z,44.06
2018-07-31T06:53:10.826Z,43.57
2018-07-31T06:54:10.811Z,42.95
2018-07-31T06:55:10.821Z,41.72
2018-07-31T06:56:10.829Z,41.31
2018-07-31T06:57:10.838Z,38.80
2018-07-31T06:58:10.846Z,37.57
2018-07-31T06:59:10.857Z,35.80
2018-07-31T07:00:10.865Z,36.20
2018-07-31T07:01:10.881Z,36.23
2018-07-31T07:02:10.941Z,35.38
2018-07-31T07:03:10.896Z,34.01
2018-07-31T07:04:10.909Z,33.82
2018-07-31T07:05:10.953Z,33.74
2018-07-31T07:06:10.929Z,33.31
2018-07-31T07:07:10.937Z,35.49
2018-07-31T07:08:10.953Z,36.36
2018-07-31T07:09:11.037Z,36.16
2018-07-31T07:10:10.973Z,36.59
2018-07-31T07:11:10.993Z,35.15
2018-07-31T07:12:10.989Z,34.30
2018-07-31T07:13:11.002Z,33.79
2018-07-31T07:14:11.010Z,33.61
2018-07-31T07:15:11.025Z,33.62
2018-07-31T07:16:11.037Z,32.80
2018-07-31T07:17:11.041Z,33.51
2018-07-31T07:18:11.054Z,34.34
2018-07-31T07:19:11.068Z,34.64
2018-07-31T07:20:11.075Z,35.10
2018-07-31T07:21:11.084Z,35.53
2018-07-31T07:22:11.097Z,35.07
2018-07-31T07:23:11.108Z,33.98
2018-07-31T07:24:11.117Z,33.22
2018-07-31T07:25:11.127Z,33.01
2018-07-31T07:26:11.145Z,34.00
2018-07-31T07:27:11.152Z,33.10
2018-07-31T07:28:11.164Z,33.23
2018-07-31T07:29:11.176Z,32.57
2018-07-31T07:30:11.190Z,31.78
2018-07-31T07:31:11.211Z,31.29
2018-07-31T07:32:11.209Z,30.61
2018-07-31T07:33:11.220Z,30.73
2018-07-31T07:34:11.236Z,30.13
2018-07-31T07:35:11.246Z,30.44
2018-07-31T07:36:11.255Z,30.27
2018-07-31T07:37:11.267Z,29.79
2018-07-31T07:38:11.280Z,30.26
2018-07-31T07:39:11.295Z,29.86
2018-07-31T07:40:11.341Z,30.30
2018-07-31T07:41:11.314Z,30.41
2018-07-31T07:42:11.329Z,30.34
2018-07-31T07:43:11.338Z,29.68
2018-07-31T07:44:11.352Z,28.80
2018-07-31T07:45:11.364Z,28.79
2018-07-31T07:46:11.379Z,29.09
2018-07-31T07:47:11.387Z,28.89
2018-07-31T07:48:11.403Z,28.59
2018-07-31T07:49:11.410Z,28.70
2018-07-31T07:50:11.430Z,29.66
2018-07-31T07:51:11.440Z,28.67
2018-07-31T07:52:11.448Z,29.48
2018-07-31T07:53:11.460Z,28.08
2018-07-31T07:54:11.629Z,28.80
2018-07-31T07:55:11.488Z,28.81
2018-07-31T07:56:11.501Z,28.04
2018-07-31T07:57:11.512Z,27.67
2018-07-31T07:58:11.530Z,26.86
2018-07-31T07:59:11.538Z,27.64
2018-07-31T08:00:11.555Z,27.36
2018-07-31T08:01:11.560Z,27.16
2018-07-31T08:02:11.575Z,26.62
2018-07-31T08:03:11.585Z,27.31
2018-07-31T08:04:11.663Z,27.51
2018-07-31T08:05:11.616Z,27.74
2018-07-31T08:06:11.629Z,26.85
2018-07-31T08:07:11.643Z,27.66
2018-07-31T08:08:11.654Z,26.96
2018-07-31T08:09:11.673Z,26.48
2018-07-31T08:10:11.681Z,25.99
2018-07-31T08:11:11.696Z,25.81
2018-07-31T08:12:11.708Z,24.58
2018-07-31T08:13:11.728Z,25.86
2018-07-31T08:14:11.734Z,25.35
2018-07-31T08:15:11.780Z,27.02
2018-07-31T08:16:11.764Z,27.16
2018-07-31T08:17:11.775Z,26.38
2018-07-31T08:18:11.832Z,24.99
2018-07-31T08:19:11.799Z,25.29
2018-07-31T08:20:11.815Z,25.29
2018-07-31T08:21:11.824Z,24.71
2018-07-31T08:22:11.843Z,25.00
2018-07-31T08:23:11.858Z,24.38
2018-07-31T08:24:11.875Z,26.07
2018-07-31T08:25:11.886Z,25.96
2018-07-31T08:26:11.899Z,25.80
2018-07-31T08:27:11.914Z,25.61
2018-07-31T08:28:11.936Z,27.25
2018-07-31T08:29:11.942Z,26.55
2018-07-31T08:30:11.970Z,27.53
2018-07-31T08:31:11.969Z,28.35
2018-07-31T08:32:12.002Z,27.39
2018-07-31T08:33:11.998Z,27.14
2018-07-31T08:34:12.012Z,26.83
2018-07-31T08:35:12.058Z,28.38
2018-07-31T08:36:12.045Z,28.08
2018-07-31T08:37:12.062Z,28.75
2018-07-31T08:38:12.072Z,28.80
2018-07-31T08:39:12.096Z,27.55
2018-07-31T08:40:12.110Z,27.40
2018-07-31T08:41:12.118Z,25.95
2018-07-31T08:42:12.167Z,24.72
2018-07-31T08:43:12.140Z,25.76
2018-07-31T08:44:12.164Z,26.94
2018-07-31T08:45:12.170Z,26.87
2018-07-31T08:46:12.186Z,25.77
2018-07-31T08:47:12.199Z,26.82
2018-07-31T08:48:12.218Z,27.87
2018-07-31T08:49:12.229Z,27.81
2018-07-31T08:50:12.244Z,28.03
2018-07-31T08:51:12.287Z,27.04
2018-07-31T08:52:12.272Z,27.36
2018-07-31T08:53:12.284Z,27.29
2018-07-31T08:54:12.311Z,26.09
2018-07-31T08:55:12.311Z,26.97
2018-07-31T08:56:12.326Z,26.56
2018-07-31T08:57:12.342Z,26.94
2018-07-31T08:58:12.354Z,26.96
2018-07-31T08:59:12.369Z,28.33
2018-07-31T09:00:12.384Z,27.29
2018-07-31T09:01:12.398Z,25.93
2018-07-31T09:02:12.409Z,25.71
2018-07-31T09:03:12.426Z,25.43
2018-07-31T09:04:12.438Z,24.76
2018-07-31T09:05:12.452Z,24.99
2018-07-31T09:06:12.472Z,24.27
2018-07-31T09:07:12.480Z,24.85
2018-07-31T09:08:12.572Z,24.35
2018-07-31T09:09:12.505Z,25.15
2018-07-31T09:10:12.536Z,26.62
2018-07-31T09:11:12.529Z,27.39
2018-07-31T09:12:12.544Z,28.81
2018-07-31T09:13:12.562Z,30.24
2018-07-31T09:14:12.573Z,31.02
2018-07-31T09:15:12.580Z,31.38
2018-07-31T09:16:12.593Z,32.27
2018-07-31T09:17:12.609Z,33.15
2018-07-31T09:18:12.617Z,31.17
2018-07-31T09:19:12.629Z,34.11
2018-07-31T09:20:12.639Z,32.73
2018-07-31T09:21:12.650Z,33.62
2018-07-31T09:22:12.668Z,34.61
2018-07-31T09:23:12.670Z,34.11
2018-07-31T09:24:12.682Z,34.01
2018-07-31T09:25:12.697Z,34.31
2018-07-31T09:26:12.700Z,33.51
2018-07-31T09:27:12.741Z,33.51
2018-07-31T09:28:12.722Z,33.61
2018-07-31T09:29:12.737Z,31.45
2018-07-31T09:30:12.748Z,32.53
2018-07-31T09:31:12.753Z,32.63
2018-07-31T09:32:12.763Z,32.63
2018-07-31T09:33:12.771Z,33.10
2018-07-31T09:34:12.782Z,34.59
2018-07-31T09:35:12.792Z,35.37
2018-07-31T09:36:12.803Z,35.47
2018-07-31T09:37:12.812Z,34.00
2018-07-31T09:38:12.838Z,34.20
2018-07-31T09:39:12.829Z,32.61
2018-07-31T09:40:12.840Z,32.42
2018-07-31T09:41:12.848Z,31.24
2018-07-31T09:42:12.853Z,31.04
2018-07-31T09:43:12.873Z,28.99
2018-07-31T09:44:12.881Z,28.79
2018-07-31T09:45:12.885Z,29.98
2018-07-31T09:46:12.897Z,29.49
2018-07-31T09:47:12.902Z,31.14
2018-07-31T09:48:12.913Z,31.24
2018-07-31T09:49:12.921Z,31.93
2018-07-31T09:50:12.929Z,29.88
2018-07-31T09:51:12.938Z,31.93
2018-07-31T09:52:12.950Z,32.90
2018-07-31T09:53:12.955Z,32.90
2018-07-31T09:54:12.967Z,33.00
2018-07-31T09:55:12.980Z,32.71
2018-07-31T09:56:12.987Z,32.71
2018-07-31T09:57:13.011Z,33.51
2018-07-31T09:58:13.008Z,32.63
2018-07-31T09:59:13.073Z,29.88
2018-07-31T10:00:13.022Z,27.92
2018-07-31T10:01:13.025Z,28.02
2018-07-31T10:02:13.039Z,28.41
2018-07-31T10:03:13.050Z,29.88
2018-07-31T10:04:13.057Z,28.81
2018-07-31T10:05:13.074Z,29.00
2018-07-31T10:06:13.085Z,30.87
2018-07-31T10:07:13.080Z,29.98
2018-07-31T10:08:13.098Z,30.57
2018-07-31T10:09:13.098Z,31.16
2018-07-31T10:10:13.109Z,31.14
2018-07-31T10:11:13.123Z,29.87
2018-07-31T10:12:13.202Z,30.77
2018-07-31T10:13:13.140Z,30.87
2018-07-31T10:14:13.143Z,29.49
2018-07-31T10:15:13.147Z,30.27
2018-07-31T10:16:13.159Z,30.00
2018-07-31T10:17:13.166Z,29.90
2018-07-31T10:18:13.249Z,31.17
2018-07-31T10:19:13.251Z,31.37
2018-07-31T10:20:13.252Z,32.35
2018-07-31T10:21:13.203Z,32.74
2018-07-31T10:22:13.226Z,31.07
2018-07-31T10:23:13.216Z,31.27
2018-07-31T10:24:13.279Z,29.31
2018-07-31T10:25:13.235Z,27.35
2018-07-31T10:26:13.374Z,27.35
2018-07-31T10:27:13.254Z,27.74
2018-07-31T10:28:13.260Z,29.60
2018-07-31T10:29:13.272Z,29.60
2018-07-31T10:30:13.277Z,28.82
2018-07-31T10:31:13.287Z,28.93
2018-07-31T10:32:13.334Z,28.54
2018-07-31T10:33:13.303Z,27.36
2018-07-31T10:34:13.313Z,27.56
2018-07-31T10:35:13.320Z,29.80
2018-07-31T10:36:13.329Z,28.63
2018-07-31T10:37:13.337Z,28.63
2018-07-31T10:38:13.422Z,28.82
2018-07-31T10:39:13.352Z,28.53
2018-07-31T10:40:13.365Z,28.54
2018-07-31T10:41:13.373Z,29.91
2018-07-31T10:42:13.381Z,30.21
2018-07-31T10:43:13.389Z,29.52
2018-07-31T10:44:13.399Z,29.22
2018-07-31T10:45:13.407Z,29.13
2018-07-31T10:46:13.416Z,28.05
2018-07-31T10:47:13.428Z,27.26
2018-07-31T10:48:13.433Z,27.77
2018-07-31T10:49:13.448Z,27.36
2018-07-31T10:50:13.530Z,27.95
2018-07-31T10:51:13.547Z,27.95
2018-07-31T10:52:13.467Z,28.33
2018-07-31T10:53:13.477Z,29.22
2018-07-31T10:54:13.486Z,27.64
2018-07-31T10:55:13.494Z,28.74
2018-07-31T10:56:13.502Z,28.93
2018-07-31T10:57:13.512Z,29.33
2018-07-31T10:58:13.550Z,29.44
2018-07-31T10:59:13.526Z,29.91
2018-07-31T11:00:13.577Z,30.42
2018-07-31T11:01:13.595Z,30.22
2018-07-31T11:02:13.556Z,30.11
2018-07-31T11:03:13.600Z,29.93
2018-07-31T11:04:13.677Z,30.91
2018-07-31T11:05:13.772Z,30.12
2018-07-31T11:06:13.658Z,31.40
2018-07-31T11:07:13.600Z,32.09
2018-07-31T11:08:13.606Z,31.60
2018-07-31T11:09:13.670Z,32.68
2018-07-31T11:10:13.625Z,31.99
2018-07-31T11:11:13.633Z,32.79
2018-07-31T11:12:13.644Z,33.08
2018-07-31T11:13:13.738Z,32.89
2018-07-31T11:14:13.668Z,32.98
2018-07-31T11:15:13.666Z,32.68
2018-07-31T11:16:13.675Z,32.48
2018-07-31T11:17:13.690Z,32.76
2018-07-31T11:18:13.693Z,32.87
2018-07-31T11:19:13.884Z,33.56
2018-07-31T11:20:13.711Z,32.95
2018-07-31T11:21:13.724Z,32.56
2018-07-31T11:22:13.728Z,32.07
2018-07-31T11:23:13.737Z,32.54
2018-07-31T11:24:13.745Z,32.15
2018-07-31T11:25:13.753Z,32.15
2018-07-31T11:26:13.767Z,32.64
2018-07-31T11:27:13.769Z,31.57
2018-07-31T11:28:13.780Z,32.06
2018-07-31T11:29:13.794Z,32.15
2018-07-31T11:30:13.978Z,32.54
2018-07-31T11:31:13.807Z,32.66
2018-07-31T11:32:13.856Z,32.07
2018-07-31T11:33:13.825Z,31.97
2018-07-31T11:34:13.829Z,31.99
2018-07-31T11:35:13.859Z,32.57
2018-07-31T11:36:13.850Z,32.97
2018-07-31T11:37:13.856Z,31.60
2018-07-31T11:38:13.892Z,31.30
2018-07-31T11:39:13.875Z,31.30
2018-07-31T11:40:13.882Z,32.97
2018-07-31T11:41:13.888Z,32.18
2018-07-31T11:42:13.901Z,32.18
2018-07-31T11:43:13.906Z,33.07
2018-07-31T11:44:13.916Z,32.97
2018-07-31T11:45:13.925Z,32.28
2018-07-31T11:46:13.934Z,32.09
2018-07-31T11:47:14.000Z,32.57
2018-07-31T11:48:13.953Z,32.38
2018-07-31T11:49:14.000Z,32.69
2018-07-31T11:50:13.994Z,32.20
2018-07-31T11:51:14.003Z,31.32
2018-07-31T11:52:13.985Z,31.90
2018-07-31T11:53:13.997Z,31.50
2018-07-31T11:54:14.003Z,32.18
2018-07-31T11:55:14.010Z,32.87
2018-07-31T11:56:14.018Z,31.40
2018-07-31T11:57:14.028Z,32.59
2018-07-31T11:58:14.035Z,33.08
2018-07-31T11:59:14.047Z,32.98
2018-07-31T12:00:14.050Z,32.90
2018-07-31T12:01:14.063Z,32.61
2018-07-31T12:02:14.077Z,32.61
2018-07-31T12:03:14.080Z,32.72
2018-07-31T12:04:14.111Z,32.31
2018-07-31T12:05:14.099Z,31.51
2018-07-31T12:06:14.106Z,32.10
2018-07-31T12:07:14.116Z,33.08
2018-07-31T12:08:14.122Z,33.28
2018-07-31T12:09:14.140Z,32.78
2018-07-31T12:10:14.156Z,33.17
2018-07-31T12:11:14.147Z,32.59
2018-07-31T12:12:14.182Z,32.79
2018-07-31T12:13:14.176Z,33.69
2018-07-31T12:14:14.179Z,32.90
2018-07-31T12:15:14.185Z,32.51
2018-07-31T12:16:14.193Z,31.32
2018-07-31T12:17:14.204Z,31.90
2018-07-31T12:18:14.215Z,32.40
2018-07-31T12:19:14.220Z,32.71
2018-07-31T12:20:14.228Z,32.61
2018-07-31T12:21:14.237Z,31.33
2018-07-31T12:22:14.247Z,31.61
2018-07-31T12:23:14.255Z,32.51
2018-07-31T12:24:14.265Z,31.12
2018-07-31T12:25:14.272Z,31.41
2018-07-31T12:26:14.283Z,32.09
2018-07-31T12:27:14.294Z,32.50
2018-07-31T12:28:14.307Z,33.77
2018-07-31T12:29:14.329Z,32.50
2018-07-31T12:30:14.320Z,32.78
2018-07-31T12:31:14.328Z,33.58
2018-07-31T12:32:14.344Z,32.68
2018-07-31T12:33:14.515Z,32.69
2018-07-31T12:34:14.357Z,32.79
2018-07-31T12:35:14.363Z,32.50
2018-07-31T12:36:14.373Z,32.78
2018-07-31T12:37:14.383Z,32.79
2018-07-31T12:38:14.429Z,32.89
2018-07-31T12:39:14.397Z,32.59
2018-07-31T12:40:14.407Z,32.59
2018-07-31T12:41:14.422Z,33.00
2018-07-31T12:42:14.428Z,32.40
2018-07-31T12:43:14.433Z,32.79
2018-07-31T12:44:14.447Z,32.71
2018-07-31T12:45:14.461Z,33.12
2018-07-31T12:46:14.465Z,32.14
2018-07-31T12:47:14.479Z,32.34
2018-07-31T12:48:14.478Z,31.35
2018-07-31T12:49:14.486Z,31.43
2018-07-31T12:50:14.521Z,31.61
2018-07-31T12:51:14.508Z,32.50
2018-07-31T12:52:14.512Z,32.12